This is the latest recevied weather packets stored in our database for station/object CX2SA-13. If no packets are shown the sender has not sent any weather packets the latest 10 day(s).
| Time | Temp. | Humidity | Pressure | Rain* | Wind** | Luminosity | Snow |
|---|---|---|---|---|---|---|---|
| 1777818583 | 15.56° C | 54% | 1021 hPa | 0 mm | - | - | - |
| 1777817684 | 15.56° C | 55% | 1021.3 hPa | 0 mm | - | - | - |
| 1777816785 | 15° C | 59% | 1021.3 hPa | 0 mm | - | - | - |
| 1777815884 | 14.44° C | 62% | 1021.3 hPa | 0 mm | - | - | - |
| 1777814984 | 14.44° C | 62% | 1021.3 hPa | 0 mm | - | - | - |
| 1777814085 | 13.89° C | 63% | 1021.3 hPa | 0 mm | - | - | - |
| 1777813184 | 13.33° C | 67% | 1022 hPa | 0 mm | - | - | - |
| 1777812285 | 12.22° C | 68% | 1021.3 hPa | 0 mm | - | - | - |
| 1777811386 | 11.67° C | 70% | 1022.3 hPa | 0 mm | - | - | - |
| 1777810484 | 11.11° C | 70% | 1022 hPa | 0 mm | - | - | - |
| 1777809585 | 10.56° C | 72% | 1022 hPa | 0 mm | - | - | - |
| 1777808684 | 10° C | 74% | 1022 hPa | 0 mm | - | - | - |
| 1777807784 | 8.33° C | 80% | 1022 hPa | 0 mm | - | - | - |
| 1777806885 | 7.78° C | 81% | 1022 hPa | 0 mm | - | - | - |
| 1777805984 | 6.67° C | 85% | 1022 hPa | 0 mm | - | - | - |
| 1777805085 | 4.44° C | 93% | 1022 hPa | 0 mm | - | - | - |
| 1777804185 | 4.44° C | 93% | 1022.3 hPa | 0 mm | - | - | - |
| 1777803284 | 4.44° C | 92% | 1022 hPa | 0 mm | - | - | - |
| 1777802385 | 5° C | 91% | 1022.3 hPa | 0 mm | - | - | - |
| 1777801486 | 5° C | 90% | 1022.3 hPa | 0 mm | - | - | - |
| 1777800584 | 5° C | 90% | 1022.3 hPa | 0 mm | - | - | - |
| 1777799685 | 5° C | 90% | 1022.3 hPa | 0 mm | - | - | - |
| 1777798784 | 5.56° C | 89% | 1022.3 hPa | 0 mm | - | - | - |
| 1777797885 | 5.56° C | 88% | 1022.3 hPa | 0 mm | - | - | - |
| 1777796985 | 5.56° C | 87% | 1023 hPa | 0 mm | - | - | - |
* Rain since midnight (hover to see other rain measurements)
** Current wind speed in m/s (hover to see current wind gust speed)